Time;durP1;ratioP1;P1;durP2;ratioP2;P2;SDS_P1;SDS_P2;PMS_P1;PMS_P2;Temp;Humidity;BMP_temperature;BMP_pressure;BME280_temperature;BME280_humidity;BME280_pressure;Samples;Min_cycle;Max_cycle;Signal;HPM_P1;HPM_P2
2021/04/18 00:03:17;;;;;;;11.07;4.40;;;;;;;;;;10432199;28;20253;-81
2021/04/18 00:08:20;;;;;;;13.43;4.83;;;;;;;;;;10422425;28;20220;-81
2021/04/18 00:13:21;;;;;;;17.27;5.40;;;;;;;;;;10427244;28;20212;-80
2021/04/18 00:18:23;;;;;;;14.83;5.60;;;;;;;;;;10425884;28;20219;-80
2021/04/18 00:23:26;;;;;;;15.17;4.83;;;;;;;;;;10421022;28;20236;-80
2021/04/18 00:28:28;;;;;;;15.13;5.33;;;;;;;;;;10421238;28;20223;-81
2021/04/18 00:33:30;;;;;;;17.13;5.17;;;;;;;;;;10426761;28;20591;-81
2021/04/18 00:38:33;;;;;;;12.47;4.63;;;;;;;;;;10424562;28;20235;-81
2021/04/18 00:43:40;;;;;;;12.90;4.77;;;;;;;;;;10428151;28;20824;-80
2021/04/18 00:48:42;;;;;;;13.00;4.80;;;;;;;;;;10426979;28;20350;-81
2021/04/18 00:53:44;;;;;;;13.63;4.50;;;;;;;;;;10422113;28;20214;-81
2021/04/18 00:58:47;;;;;;;12.53;4.30;;;;;;;;;;10420357;28;20242;-80
2021/04/18 01:03:49;;;;;;;12.37;5.13;;;;;;;;;;10420541;28;20226;-80
2021/04/18 01:08:51;;;;;;;12.97;4.83;;;;;;;;;;10425140;28;20219;-81
2021/04/18 01:13:53;;;;;;;14.27;5.13;;;;;;;;;;10424131;28;20216;-81
2021/04/18 01:18:55;;;;;;;13.90;4.80;;;;;;;;;;10434771;28;20212;-81
2021/04/18 01:23:58;;;;;;;16.60;5.90;;;;;;;;;;10420011;28;20403;-81
2021/04/18 01:29:00;;;;;;;16.50;5.93;;;;;;;;;;10425049;28;20239;-80
2021/04/18 01:34:02;;;;;;;18.17;6.10;;;;;;;;;;10422622;28;20219;-82
2021/04/18 01:39:06;;;;;;;18.53;6.20;;;;;;;;;;10428551;28;20226;-80
2021/04/18 01:44:12;;;;;;;13.47;6.10;;;;;;;;;;10423193;28;20309;-80
2021/04/18 01:49:14;;;;;;;15.03;5.70;;;;;;;;;;10432148;28;20213;-80
2021/04/18 01:54:16;;;;;;;15.33;5.90;;;;;;;;;;10416036;28;20249;-80
2021/04/18 01:59:19;;;;;;;16.97;5.33;;;;;;;;;;10426322;28;20217;-80
2021/04/18 02:04:21;;;;;;;15.30;5.90;;;;;;;;;;10421864;28;20239;-80
2021/04/18 02:09:24;;;;;;;15.13;6.20;;;;;;;;;;10429494;28;20326;-79
2021/04/18 02:14:26;;;;;;;16.00;5.73;;;;;;;;;;10424352;28;20275;-81
2021/04/18 02:19:28;;;;;;;14.83;5.90;;;;;;;;;;10435281;28;20234;-81
2021/04/18 02:24:31;;;;;;;17.43;5.43;;;;;;;;;;10435589;28;20791;-81
2021/04/18 02:29:33;;;;;;;10.90;5.23;;;;;;;;;;10428222;28;20220;-80
2021/04/18 02:34:35;;;;;;;15.23;6.07;;;;;;;;;;10435630;28;20867;-80
2021/04/18 02:39:38;;;;;;;13.77;5.70;;;;;;;;;;10431502;28;20232;-81
2021/04/18 02:44:39;;;;;;;11.83;5.37;;;;;;;;;;10433336;28;20235;-81
2021/04/18 02:49:42;;;;;;;14.87;5.90;;;;;;;;;;10433929;28;20358;-81
2021/04/18 02:54:44;;;;;;;11.87;5.30;;;;;;;;;;10426667;28;20208;-81
2021/04/18 02:59:46;;;;;;;15.43;6.03;;;;;;;;;;10430020;28;20222;-80
2021/04/18 03:04:48;;;;;;;16.70;6.27;;;;;;;;;;10427961;28;20235;-80
2021/04/18 03:09:51;;;;;;;12.70;5.87;;;;;;;;;;10429913;28;20219;-80
2021/04/18 03:14:53;;;;;;;11.97;5.33;;;;;;;;;;10424011;28;20216;-80
2021/04/18 03:19:55;;;;;;;13.03;5.03;;;;;;;;;;10432285;28;20357;-81
2021/04/18 03:24:58;;;;;;;9.80;5.27;;;;;;;;;;10425323;28;20235;-81
2021/04/18 03:30:00;;;;;;;11.60;5.40;;;;;;;;;;10424522;28;20219;-81
2021/04/18 03:35:02;;;;;;;13.23;4.47;;;;;;;;;;10430682;28;20581;-81
2021/04/18 03:40:06;;;;;;;10.97;4.60;;;;;;;;;;10428376;28;20855;-81
2021/04/18 03:45:09;;;;;;;9.43;4.87;;;;;;;;;;10428850;28;20250;-81
2021/04/18 03:50:11;;;;;;;13.60;5.57;;;;;;;;;;10430839;28;20225;-80
2021/04/18 03:55:14;;;;;;;10.27;4.37;;;;;;;;;;10429699;28;20224;-81
2021/04/18 04:00:17;;;;;;;10.97;5.10;;;;;;;;;;10425448;28;20225;-80
2021/04/18 04:05:19;;;;;;;15.07;6.17;;;;;;;;;;10427100;28;20246;-78
2021/04/18 04:10:22;;;;;;;11.37;5.83;;;;;;;;;;10427413;28;20219;-77
2021/04/18 04:15:23;;;;;;;14.97;6.60;;;;;;;;;;10431320;28;20684;-77
2021/04/18 04:20:25;;;;;;;13.13;5.90;;;;;;;;;;10421415;28;20234;-77
2021/04/18 04:25:29;;;;;;;14.93;6.40;;;;;;;;;;10424262;28;20227;-78
2021/04/18 04:30:31;;;;;;;10.70;6.00;;;;;;;;;;10424233;28;20654;-78
2021/04/18 04:35:33;;;;;;;13.70;6.33;;;;;;;;;;10424400;28;20622;-77
2021/04/18 04:40:37;;;;;;;13.57;6.17;;;;;;;;;;10423683;28;20246;-78
2021/04/18 04:45:40;;;;;;;13.03;6.17;;;;;;;;;;10422502;28;20255;-75
2021/04/18 04:50:41;;;;;;;12.77;5.90;;;;;;;;;;10425254;28;20309;-77
2021/04/18 04:55:46;;;;;;;10.27;5.53;;;;;;;;;;10430201;28;20227;-77
2021/04/18 05:00:48;;;;;;;10.40;5.53;;;;;;;;;;10423563;28;20211;-77
2021/04/18 05:05:50;;;;;;;12.73;6.23;;;;;;;;;;10425989;28;20635;-77
2021/04/18 05:10:53;;;;;;;9.63;5.30;;;;;;;;;;10422528;28;20571;-77
2021/04/18 05:15:54;;;;;;;10.57;5.30;;;;;;;;;;10423370;28;20308;-77
2021/04/18 05:20:56;;;;;;;10.23;5.80;;;;;;;;;;10424121;28;20219;-77
2021/04/18 05:25:59;;;;;;;13.37;5.37;;;;;;;;;;10429546;28;20245;-77
2021/04/18 05:31:01;;;;;;;11.40;5.40;;;;;;;;;;10421553;28;20223;-77
2021/04/18 05:36:03;;;;;;;15.10;6.10;;;;;;;;;;10425427;28;20211;-77
2021/04/18 05:41:06;;;;;;;21.10;6.90;;;;;;;;;;10424866;28;20235;-77
2021/04/18 05:46:07;;;;;;;26.23;7.33;;;;;;;;;;10423602;28;20510;-77
2021/04/18 05:51:09;;;;;;;22.80;7.53;;;;;;;;;;10430789;28;20214;-77
2021/04/18 05:56:12;;;;;;;24.07;7.90;;;;;;;;;;10436002;28;20227;-78
2021/04/18 06:01:14;;;;;;;20.23;8.53;;;;;;;;;;10432576;28;20696;-78
2021/04/18 06:06:16;;;;;;;25.37;9.43;;;;;;;;;;10432018;28;20339;-78
2021/04/18 06:11:19;;;;;;;23.20;9.63;;;;;;;;;;10434432;28;20207;-78
2021/04/18 06:16:21;;;;;;;27.23;9.90;;;;;;;;;;10428688;28;20224;-78
2021/04/18 06:21:24;;;;;;;22.40;10.00;;;;;;;;;;10436980;28;20669;-78
2021/04/18 06:26:26;;;;;;;19.40;9.63;;;;;;;;;;10426905;28;20756;-76
2021/04/18 06:31:28;;;;;;;22.77;9.50;;;;;;;;;;10432299;28;20664;-75
2021/04/18 06:36:32;;;;;;;21.03;9.53;;;;;;;;;;10429468;28;20333;-77
2021/04/18 06:41:35;;;;;;;18.00;9.20;;;;;;;;;;10427112;28;20490;-77
2021/04/18 06:46:37;;;;;;;23.00;10.77;;;;;;;;;;10426957;28;20238;-81
2021/04/18 06:51:40;;;;;;;17.67;8.77;;;;;;;;;;10431262;28;20738;-77
2021/04/18 06:56:42;;;;;;;18.87;9.33;;;;;;;;;;10425674;28;20211;-79
2021/04/18 07:01:44;;;;;;;18.50;8.67;;;;;;;;;;10418792;28;20222;-79
2021/04/18 07:06:46;;;;;;;19.70;8.53;;;;;;;;;;10430056;28;20321;-79
2021/04/18 07:11:50;;;;;;;17.87;9.20;;;;;;;;;;10428585;28;20223;-81
2021/04/18 07:16:52;;;;;;;19.37;8.93;;;;;;;;;;10427906;28;20212;-84
2021/04/18 07:21:55;;;;;;;22.20;9.63;;;;;;;;;;10434122;28;20220;-82
2021/04/18 07:26:58;;;;;;;27.73;11.80;;;;;;;;;;10427449;28;20250;-75
2021/04/18 07:32:00;;;;;;;22.97;10.87;;;;;;;;;;10434670;28;20624;-75
2021/04/18 07:37:06;;;;;;;21.13;10.20;;;;;;;;;;10430141;28;20239;-77
2021/04/18 07:42:25;;;;;;;26.87;10.53;;;;;;;;;;10417277;28;20212;-77
2021/04/18 07:47:27;;;;;;;23.23;10.37;;;;;;;;;;10422255;28;20246;-76
2021/04/18 07:52:30;;;;;;;22.73;10.67;;;;;;;;;;10436598;28;20215;-75
2021/04/18 07:57:33;;;;;;;24.77;10.87;;;;;;;;;;10419737;28;20738;-76
2021/04/18 08:02:35;;;;;;;22.17;9.63;;;;;;;;;;10423885;28;20499;-77
2021/04/18 08:07:52;;;;;;;17.20;9.20;;;;;;;;;;10426206;28;20289;-78
2021/04/18 08:13:05;;;;;;;21.63;9.37;;;;;;;;;;10402268;28;20211;-75
2021/04/18 08:18:08;;;;;;;17.43;8.50;;;;;;;;;;10426547;28;20211;-77
2021/04/18 08:23:13;;;;;;;21.00;8.93;;;;;;;;;;10422689;28;20212;-77
2021/04/18 08:28:16;;;;;;;15.90;8.13;;;;;;;;;;10417279;28;20267;-77
2021/04/18 08:33:32;;;;;;;13.33;7.63;;;;;;;;;;10407893;28;20223;-76
2021/04/18 08:38:35;;;;;;;15.30;7.47;;;;;;;;;;10398378;28;20964;-87
2021/04/18 08:43:39;;;;;;;16.53;7.47;;;;;;;;;;10405742;28;20216;-83
2021/04/18 08:48:41;;;;;;;15.33;7.07;;;;;;;;;;10397058;28;20297;-76
2021/04/18 08:54:01;;;;;;;14.40;6.83;;;;;;;;;;10394699;28;20334;-77
2021/04/18 08:59:09;;;;;;;15.60;7.07;;;;;;;;;;10403130;28;20219;-76
2021/04/18 09:04:12;;;;;;;20.10;7.97;;;;;;;;;;10404367;28;20328;-76
2021/04/18 09:09:15;;;;;;;15.10;7.53;;;;;;;;;;10402803;28;20892;-78
2021/04/18 09:14:18;;;;;;;13.93;6.23;;;;;;;;;;10410042;28;20207;-78
2021/04/18 09:19:25;;;;;;;13.20;6.53;;;;;;;;;;10401973;28;20226;-78
2021/04/18 09:24:28;;;;;;;14.53;6.50;;;;;;;;;;10397955;28;20226;-79
2021/04/18 09:29:31;;;;;;;11.17;5.60;;;;;;;;;;10409865;28;20369;-79
2021/04/18 09:34:34;;;;;;;12.20;5.40;;;;;;;;;;10413522;28;20463;-80
2021/04/18 09:39:37;;;;;;;12.37;5.27;;;;;;;;;;10410331;28;20246;-79
2021/04/18 09:44:43;;;;;;;12.77;4.90;;;;;;;;;;10409505;28;20235;-79
2021/04/18 09:49:55;;;;;;;8.63;4.47;;;;;;;;;;10403824;28;20226;-76
2021/04/18 09:55:21;;;;;;;9.77;4.73;;;;;;;;;;10404264;28;20216;-75
2021/04/18 10:00:25;;;;;;;9.80;5.50;;;;;;;;;;10374725;28;20231;-76
2021/04/18 10:05:28;;;;;;;10.73;4.70;;;;;;;;;;10405406;28;20244;-75
2021/04/18 10:10:30;;;;;;;8.93;4.60;;;;;;;;;;10413606;28;20211;-75
2021/04/18 10:15:33;;;;;;;8.87;4.37;;;;;;;;;;10415337;28;20218;-76
2021/04/18 10:20:36;;;;;;;9.80;4.47;;;;;;;;;;10413480;28;20215;-76
2021/04/18 10:25:38;;;;;;;9.03;3.93;;;;;;;;;;10412008;28;20239;-75
2021/04/18 10:30:41;;;;;;;8.10;4.00;;;;;;;;;;10408363;28;20367;-75
2021/04/18 10:35:43;;;;;;;7.60;3.47;;;;;;;;;;10405064;28;20249;-75
2021/04/18 10:40:45;;;;;;;6.23;3.07;;;;;;;;;;10419380;28;20411;-75
2021/04/18 10:45:47;;;;;;;7.53;3.27;;;;;;;;;;10414784;28;20243;-75
2021/04/18 10:50:49;;;;;;;7.40;3.73;;;;;;;;;;10421331;28;20212;-79
2021/04/18 10:55:51;;;;;;;4.67;2.87;;;;;;;;;;10415756;28;20215;-77
2021/04/18 11:00:54;;;;;;;7.93;3.90;;;;;;;;;;10421482;28;20705;-78
2021/04/18 11:05:56;;;;;;;11.33;4.60;;;;;;;;;;10423480;28;20239;-76
2021/04/18 11:10:58;;;;;;;18.23;5.50;;;;;;;;;;10418325;28;20583;-80
2021/04/18 11:16:00;;;;;;;10.33;4.53;;;;;;;;;;10416359;28;20329;-77
2021/04/18 11:21:02;;;;;;;10.93;4.73;;;;;;;;;;10423371;28;21411;-79
2021/04/18 11:26:04;;;;;;;9.37;4.60;;;;;;;;;;10429466;28;20703;-78
2021/04/18 11:31:07;;;;;;;7.90;4.13;;;;;;;;;;10421399;28;20227;-82
2021/04/18 11:36:09;;;;;;;8.07;4.17;;;;;;;;;;10419533;28;20219;-77
2021/04/18 11:41:12;;;;;;;8.53;4.03;;;;;;;;;;10416051;28;20250;-77
2021/04/18 11:46:15;;;;;;;8.33;4.37;;;;;;;;;;10410095;28;20232;-76
2021/04/18 11:51:17;;;;;;;10.83;4.50;;;;;;;;;;10411260;28;20787;-81
2021/04/18 11:56:19;;;;;;;14.07;4.57;;;;;;;;;;10422501;28;20223;-77
2021/04/18 12:01:22;;;;;;;10.87;4.97;;;;;;;;;;10414048;28;20688;-78
2021/04/18 12:06:24;;;;;;;10.97;4.70;;;;;;;;;;10419296;28;20408;-75
2021/04/18 12:11:26;;;;;;;11.60;5.40;;;;;;;;;;10410154;28;20227;-75
2021/04/18 12:16:29;;;;;;;12.93;5.33;;;;;;;;;;10419830;28;20227;-77
2021/04/18 12:21:31;;;;;;;9.57;5.03;;;;;;;;;;10411751;28;20226;-76
2021/04/18 12:26:33;;;;;;;10.50;4.90;;;;;;;;;;10404195;28;20238;-80
2021/04/18 12:31:40;;;;;;;10.83;4.93;;;;;;;;;;10419090;28;20349;-80
2021/04/18 12:36:42;;;;;;;9.50;4.90;;;;;;;;;;10414061;28;20785;-74
2021/04/18 12:41:44;;;;;;;8.67;4.53;;;;;;;;;;10414723;28;20239;-79
2021/04/18 12:46:47;;;;;;;10.47;5.03;;;;;;;;;;10412903;28;20361;-79
2021/04/18 12:51:50;;;;;;;9.60;4.70;;;;;;;;;;10415576;28;20227;-81
2021/04/18 12:56:52;;;;;;;9.70;5.13;;;;;;;;;;10407764;28;20318;-74
2021/04/18 13:01:55;;;;;;;9.13;4.43;;;;;;;;;;10409236;28;20672;-76
2021/04/18 13:06:57;;;;;;;8.37;5.00;;;;;;;;;;10406175;28;20342;-75
2021/04/18 13:11:59;;;;;;;7.17;4.40;;;;;;;;;;10398605;28;20211;-75
2021/04/18 13:17:03;;;;;;;9.37;5.03;;;;;;;;;;10402787;28;21051;-75
2021/04/18 13:22:05;;;;;;;8.60;4.90;;;;;;;;;;10405620;28;20698;-75
2021/04/18 13:27:07;;;;;;;7.60;4.20;;;;;;;;;;10406243;28;20248;-74
2021/04/18 13:32:10;;;;;;;8.47;4.43;;;;;;;;;;10402373;28;20214;-74
2021/04/18 13:37:12;;;;;;;8.47;4.43;;;;;;;;;;10400293;28;20253;-75
2021/04/18 13:42:14;;;;;;;11.27;4.20;;;;;;;;;;10409489;28;20215;-75
2021/04/18 13:47:17;;;;;;;8.70;4.00;;;;;;;;;;10402849;28;20231;-75
2021/04/18 13:52:19;;;;;;;7.60;3.97;;;;;;;;;;10403814;28;20215;-75
2021/04/18 13:57:21;;;;;;;7.63;4.10;;;;;;;;;;10414178;28;20531;-75
2021/04/18 14:02:26;;;;;;;8.97;4.00;;;;;;;;;;10412225;28;20330;-75
2021/04/18 14:07:28;;;;;;;11.80;4.63;;;;;;;;;;10408606;28;20246;-74
2021/04/18 14:12:30;;;;;;;9.70;4.90;;;;;;;;;;10410304;28;20207;-74
2021/04/18 14:17:32;;;;;;;7.97;4.57;;;;;;;;;;10409371;28;20226;-75
2021/04/18 14:22:34;;;;;;;11.20;4.80;;;;;;;;;;10407474;28;20739;-75
2021/04/18 14:27:37;;;;;;;10.17;4.70;;;;;;;;;;10409157;28;20545;-74
2021/04/18 14:32:41;;;;;;;8.67;4.90;;;;;;;;;;10419555;28;20589;-75
2021/04/18 14:37:44;;;;;;;9.63;4.87;;;;;;;;;;10429404;28;20243;-75
2021/04/18 14:42:46;;;;;;;9.33;4.63;;;;;;;;;;10420464;28;20220;-74
2021/04/18 14:47:48;;;;;;;10.33;5.17;;;;;;;;;;10430707;28;20238;-76
2021/04/18 14:52:50;;;;;;;11.93;5.13;;;;;;;;;;10420586;28;20632;-75
2021/04/18 14:57:52;;;;;;;13.07;5.40;;;;;;;;;;10428550;28;20220;-76
2021/04/18 15:02:55;;;;;;;11.97;5.20;;;;;;;;;;10423670;28;20232;-74
2021/04/18 15:07:57;;;;;;;10.67;5.00;;;;;;;;;;10421533;28;20242;-76
2021/04/18 15:12:59;;;;;;;10.53;5.27;;;;;;;;;;10410968;28;20241;-75
2021/04/18 15:18:02;;;;;;;10.30;4.93;;;;;;;;;;10422429;28;20687;-75
2021/04/18 15:23:04;;;;;;;12.30;5.37;;;;;;;;;;10423550;28;20587;-75
2021/04/18 15:28:07;;;;;;;9.37;4.90;;;;;;;;;;10414337;28;20327;-75
2021/04/18 15:33:21;;;;;;;10.50;4.50;;;;;;;;;;10415934;28;20290;-74
2021/04/18 15:38:23;;;;;;;10.73;4.80;;;;;;;;;;10423946;28;20906;-74
2021/04/18 15:43:25;;;;;;;9.27;4.97;;;;;;;;;;10418161;28;20309;-75
2021/04/18 15:48:29;;;;;;;8.13;4.20;;;;;;;;;;10429135;28;20324;-79
2021/04/18 15:53:34;;;;;;;9.40;4.60;;;;;;;;;;10429429;28;20330;-78
2021/04/18 15:58:37;;;;;;;9.73;4.90;;;;;;;;;;10414728;28;20223;-75
2021/04/18 16:03:41;;;;;;;8.53;4.60;;;;;;;;;;10419956;28;20200;-81
2021/04/18 16:08:49;;;;;;;9.83;5.10;;;;;;;;;;10419403;28;20783;-74
2021/04/18 16:13:53;;;;;;;12.57;5.63;;;;;;;;;;10416791;28;20215;-75
2021/04/18 16:18:56;;;;;;;10.63;6.03;;;;;;;;;;10419750;28;20677;-74
2021/04/18 16:23:58;;;;;;;9.07;4.87;;;;;;;;;;10419763;28;20331;-74
2021/04/18 16:29:01;;;;;;;10.20;5.23;;;;;;;;;;10421310;28;20239;-75
2021/04/18 16:34:05;;;;;;;11.10;4.73;;;;;;;;;;10426269;28;20559;-74
2021/04/18 16:39:08;;;;;;;7.03;4.37;;;;;;;;;;10420945;28;20223;-74
2021/04/18 16:44:15;;;;;;;8.33;4.53;;;;;;;;;;10414907;28;20215;-76
2021/04/18 16:49:19;;;;;;;9.93;4.40;;;;;;;;;;10414265;28;20246;-74
2021/04/18 16:54:21;;;;;;;9.17;5.00;;;;;;;;;;10416829;28;20224;-75
2021/04/18 16:59:24;;;;;;;13.03;5.80;;;;;;;;;;10420701;28;20302;-75
2021/04/18 17:04:27;;;;;;;17.97;6.30;;;;;;;;;;10438934;28;20599;-75
2021/04/18 17:09:30;;;;;;;15.30;6.70;;;;;;;;;;10421860;28;20852;-75
2021/04/18 17:14:32;;;;;;;11.20;6.17;;;;;;;;;;10417065;28;20244;-77
2021/04/18 17:19:36;;;;;;;12.53;6.43;;;;;;;;;;10415921;28;20265;-75
2021/04/18 17:24:39;;;;;;;14.73;6.13;;;;;;;;;;10419604;28;20230;-75
2021/04/18 17:29:41;;;;;;;12.93;6.50;;;;;;;;;;10415234;28;20279;-75
2021/04/18 17:34:44;;;;;;;10.80;6.37;;;;;;;;;;10418965;28;20222;-75
2021/04/18 17:39:46;;;;;;;17.00;6.67;;;;;;;;;;10406732;28;20686;-74
2021/04/18 17:44:48;;;;;;;14.67;6.93;;;;;;;;;;10416353;28;20211;-76
2021/04/18 17:49:51;;;;;;;18.00;6.50;;;;;;;;;;10430671;28;20983;-75
2021/04/18 17:54:53;;;;;;;12.33;6.10;;;;;;;;;;10416921;28;20334;-76
2021/04/18 17:59:55;;;;;;;11.05;5.97;;;;;;;;;;10419770;28;20473;-75
2021/04/18 18:04:58;;;;;;;8.23;5.60;;;;;;;;;;10417453;28;20226;-77
2021/04/18 18:10:00;;;;;;;10.60;6.33;;;;;;;;;;10423683;28;20267;-75
2021/04/18 18:15:03;;;;;;;10.93;5.40;;;;;;;;;;10420126;28;20666;-75
2021/04/18 18:20:07;;;;;;;13.47;5.70;;;;;;;;;;10418096;28;21099;-77
2021/04/18 18:25:10;;;;;;;14.37;5.80;;;;;;;;;;10410895;28;20758;-76
2021/04/18 18:30:12;;;;;;;14.67;5.70;;;;;;;;;;10417492;28;20227;-77
2021/04/18 18:35:17;;;;;;;10.90;5.43;;;;;;;;;;10423166;28;20215;-76
2021/04/18 18:40:19;;;;;;;12.10;5.57;;;;;;;;;;10417439;28;20244;-75
2021/04/18 18:45:23;;;;;;;10.37;5.17;;;;;;;;;;10415546;28;20345;-76
2021/04/18 18:50:26;;;;;;;12.20;5.20;;;;;;;;;;10424057;28;20683;-76
2021/04/18 18:55:29;;;;;;;12.90;5.57;;;;;;;;;;10422694;28;20599;-76
2021/04/18 19:00:32;;;;;;;13.40;5.50;;;;;;;;;;10415948;28;20218;-76
2021/04/18 19:05:37;;;;;;;11.33;5.77;;;;;;;;;;10418939;28;20258;-76
2021/04/18 19:10:38;;;;;;;9.40;5.10;;;;;;;;;;10418892;28;20211;-75
2021/04/18 19:15:40;;;;;;;12.10;4.60;;;;;;;;;;10422999;28;20206;-75
2021/04/18 19:20:43;;;;;;;8.27;4.43;;;;;;;;;;10423840;28;20224;-76
2021/04/18 19:25:45;;;;;;;9.03;4.20;;;;;;;;;;10419986;28;21011;-75
2021/04/18 19:30:48;;;;;;;8.47;4.70;;;;;;;;;;10416634;28;20259;-75
2021/04/18 19:35:59;;;;;;;9.80;4.70;;;;;;;;;;10408642;28;20624;-76
2021/04/18 19:41:00;;;;;;;14.57;6.03;;;;;;;;;;10413177;28;20718;-76
2021/04/18 19:46:03;;;;;;;14.27;6.30;;;;;;;;;;10409415;28;20378;-76
2021/04/18 19:51:06;;;;;;;13.63;4.50;;;;;;;;;;10415495;28;20227;-74
2021/04/18 19:56:08;;;;;;;10.13;4.17;;;;;;;;;;10411517;28;20208;-75
2021/04/18 20:01:09;;;;;;;10.37;4.03;;;;;;;;;;10406151;28;20779;-75
2021/04/18 20:06:13;;;;;;;13.40;5.03;;;;;;;;;;10407487;28;20354;-75
2021/04/18 20:11:15;;;;;;;11.93;5.33;;;;;;;;;;10411540;28;20214;-76
2021/04/18 20:16:17;;;;;;;10.97;4.93;;;;;;;;;;10413523;28;20704;-74
2021/04/18 20:21:20;;;;;;;10.63;4.90;;;;;;;;;;10410513;28;20241;-75
2021/04/18 20:26:22;;;;;;;10.33;5.13;;;;;;;;;;10440956;22;20237;-72
2021/04/18 20:31:44;;;;;;;9.50;5.17;;;;;;;;;;10374530;28;20242;-72
2021/04/18 20:36:47;;;;;;;17.33;6.10;;;;;;;;;;10410593;28;20212;-73
2021/04/18 20:41:49;;;;;;;10.70;5.30;;;;;;;;;;10405608;28;20539;-71
2021/04/18 20:46:51;;;;;;;10.27;4.57;;;;;;;;;;10408425;28;20246;-72
2021/04/18 20:51:53;;;;;;;9.20;4.63;;;;;;;;;;10416111;28;20242;-73
2021/04/18 20:56:55;;;;;;;10.17;4.67;;;;;;;;;;10409855;28;20223;-73
2021/04/18 21:01:57;;;;;;;11.10;4.73;;;;;;;;;;10406538;28;20216;-73
2021/04/18 21:07:00;;;;;;;10.23;4.70;;;;;;;;;;10407325;28;20240;-75
2021/04/18 21:12:02;;;;;;;7.63;4.30;;;;;;;;;;10410875;28;20227;-72
2021/04/18 21:17:04;;;;;;;9.37;4.50;;;;;;;;;;10415931;28;20688;-71
2021/04/18 21:22:07;;;;;;;9.70;4.37;;;;;;;;;;10414981;28;20707;-72
2021/04/18 21:27:09;;;;;;;16.37;4.70;;;;;;;;;;10412965;28;20238;-73
2021/04/18 21:32:11;;;;;;;7.93;4.40;;;;;;;;;;10408665;28;20779;-73
2021/04/18 21:37:14;;;;;;;7.20;4.40;;;;;;;;;;10412487;28;20232;-73
2021/04/18 21:42:16;;;;;;;8.03;4.60;;;;;;;;;;10410917;28;20211;-73
2021/04/18 21:47:19;;;;;;;8.37;4.90;;;;;;;;;;10431021;28;20775;-72
2021/04/18 21:52:22;;;;;;;9.40;4.83;;;;;;;;;;10412669;28;20224;-73
2021/04/18 21:57:24;;;;;;;9.53;5.13;;;;;;;;;;10414232;28;20222;-73
2021/04/18 22:02:26;;;;;;;8.17;5.03;;;;;;;;;;10413383;28;20361;-73
2021/04/18 22:07:28;;;;;;;9.17;5.27;;;;;;;;;;10407588;28;20235;-73
2021/04/18 22:12:30;;;;;;;8.90;5.03;;;;;;;;;;10420232;28;20670;-72
2021/04/18 22:17:32;;;;;;;11.83;5.60;;;;;;;;;;10417670;28;20310;-73
2021/04/18 22:22:34;;;;;;;10.40;5.20;;;;;;;;;;10428830;28;20215;-73
2021/04/18 22:27:36;;;;;;;12.17;5.23;;;;;;;;;;10414663;28;20243;-73
2021/04/18 22:32:38;;;;;;;11.67;5.00;;;;;;;;;;10419858;28;20207;-73
2021/04/18 22:37:41;;;;;;;11.13;5.57;;;;;;;;;;10433851;28;21856;-72
2021/04/18 22:42:43;;;;;;;10.00;5.53;;;;;;;;;;10430157;28;20222;-72
2021/04/18 22:47:45;;;;;;;9.03;5.07;;;;;;;;;;10427790;28;20258;-72
2021/04/18 22:52:50;;;;;;;11.97;5.10;;;;;;;;;;10429789;28;20306;-72
2021/04/18 22:57:52;;;;;;;10.37;5.33;;;;;;;;;;10425882;28;20680;-74
2021/04/18 23:02:54;;;;;;;10.80;5.10;;;;;;;;;;10425092;28;20213;-73
2021/04/18 23:07:57;;;;;;;12.50;6.20;;;;;;;;;;10418782;28;20238;-73
2021/04/18 23:12:59;;;;;;;11.87;5.33;;;;;;;;;;10417000;28;20215;-72
2021/04/18 23:18:01;;;;;;;11.13;5.30;;;;;;;;;;10416014;28;20324;-74
2021/04/18 23:23:04;;;;;;;10.83;5.30;;;;;;;;;;10430670;28;20217;-73
2021/04/18 23:28:06;;;;;;;12.37;5.60;;;;;;;;;;10424351;28;20246;-73
2021/04/18 23:33:08;;;;;;;13.27;5.90;;;;;;;;;;10420317;28;20230;-74
2021/04/18 23:38:11;;;;;;;11.07;6.23;;;;;;;;;;10423342;28;20235;-71
2021/04/18 23:43:13;;;;;;;12.83;6.30;;;;;;;;;;10424426;28;20709;-72
2021/04/18 23:48:17;;;;;;;9.80;5.47;;;;;;;;;;10432290;28;20262;-72
2021/04/18 23:53:20;;;;;;;10.90;5.63;;;;;;;;;;10431148;28;20210;-72
2021/04/18 23:58:22;;;;;;;11.07;5.60;;;;;;;;;;10430731;28;20219;-72
